createdAt,value
2023-04-30T00:00:12.284Z,1.40
2023-04-30T00:02:45.476Z,1.10
2023-04-30T00:04:58.195Z,1.40
2023-04-30T00:07:11.500Z,1.40
2023-04-30T00:09:23.967Z,1.00
2023-04-30T00:11:36.289Z,1.20
2023-04-30T00:13:49.005Z,1.20
2023-04-30T00:16:01.378Z,1.30
2023-04-30T00:18:13.943Z,1.70
2023-04-30T00:20:26.393Z,0.90
2023-04-30T00:22:39.318Z,0.90
2023-04-30T00:24:51.746Z,1.00
2023-04-30T00:27:04.188Z,1.10
2023-04-30T00:29:17.562Z,0.90
2023-04-30T00:31:30.095Z,1.00
2023-04-30T00:33:42.848Z,0.80
2023-04-30T00:35:55.250Z,0.90
2023-04-30T00:38:07.985Z,0.90
2023-04-30T00:40:20.870Z,1.00
2023-04-30T00:42:33.210Z,0.80
2023-04-30T00:44:45.632Z,0.70
2023-04-30T00:46:58.129Z,0.80
2023-04-30T00:49:10.633Z,0.80
2023-04-30T00:51:23.357Z,1.00
2023-04-30T00:53:36.803Z,0.70
2023-04-30T00:55:51.107Z,0.80
2023-04-30T00:58:04.330Z,0.70
2023-04-30T01:00:20.613Z,0.90
2023-04-30T01:02:33.622Z,1.10
2023-04-30T01:04:46.646Z,0.70
2023-04-30T01:06:59.705Z,1.10
2023-04-30T01:09:12.825Z,1.20
2023-04-30T01:11:37.574Z,1.10
2023-04-30T01:13:58.697Z,1.50
2023-04-30T01:16:19.069Z,4.70
2023-04-30T01:18:37.087Z,2.60
2023-04-30T01:20:52.183Z,1.10
2023-04-30T01:23:15.262Z,1.20
2023-04-30T01:25:56.635Z,0.80
2023-04-30T01:28:21.194Z,0.60
2023-04-30T01:30:35.970Z,0.60
2023-04-30T01:32:49.031Z,0.80
2023-04-30T01:35:03.043Z,1.00
2023-04-30T01:37:25.661Z,0.70
2023-04-30T01:39:59.334Z,0.90
2023-04-30T01:42:24.121Z,0.80
2023-04-30T01:44:53.248Z,0.80
2023-04-30T01:47:13.082Z,0.90
2023-04-30T01:49:35.652Z,1.00
2023-04-30T01:51:49.295Z,1.20
2023-04-30T01:54:06.548Z,1.10
2023-04-30T01:56:29.083Z,1.00
2023-04-30T01:58:42.407Z,0.70
2023-04-30T02:00:55.442Z,0.80
2023-04-30T02:03:09.319Z,1.00
2023-04-30T02:05:22.710Z,1.20
2023-04-30T02:07:43.777Z,1.00
2023-04-30T02:09:56.219Z,1.10
2023-04-30T02:12:08.936Z,0.90
2023-04-30T02:14:21.925Z,0.70
2023-04-30T02:16:38.059Z,1.30
2023-04-30T02:18:51.022Z,1.10
2023-04-30T02:21:03.569Z,1.00
2023-04-30T02:23:17.357Z,0.90
2023-04-30T02:25:29.995Z,1.40
2023-04-30T02:27:43.899Z,1.10
2023-04-30T02:29:57.471Z,1.30
2023-04-30T02:32:12.827Z,1.00
2023-04-30T02:34:26.065Z,1.10
2023-04-30T02:36:39.176Z,1.30
2023-04-30T02:38:51.929Z,0.90
2023-04-30T02:41:04.454Z,1.10
2023-04-30T02:43:17.897Z,1.30
2023-04-30T02:45:30.456Z,0.90
2023-04-30T02:47:43.079Z,1.20
2023-04-30T02:49:55.955Z,1.20
2023-04-30T02:52:10.710Z,1.30
2023-04-30T02:54:23.671Z,0.80
2023-04-30T02:56:36.122Z,1.00
2023-04-30T02:58:49.148Z,1.10
2023-04-30T03:01:01.477Z,1.10
2023-04-30T03:03:14.723Z,1.20
2023-04-30T03:05:27.738Z,1.00
2023-04-30T03:07:40.274Z,1.10
2023-04-30T03:09:53.842Z,1.00
2023-04-30T03:12:06.858Z,1.50
2023-04-30T03:14:19.275Z,1.00
2023-04-30T03:16:32.123Z,0.80
2023-04-30T03:18:44.991Z,1.00
2023-04-30T03:20:57.457Z,1.00
2023-04-30T03:23:09.924Z,1.00
2023-04-30T03:25:23.699Z,1.10
2023-04-30T03:27:36.114Z,1.00
2023-04-30T03:29:49.175Z,1.00
2023-04-30T03:32:01.794Z,0.90
2023-04-30T03:34:14.975Z,1.20
2023-04-30T03:36:28.396Z,1.30
2023-04-30T03:38:41.465Z,1.20
2023-04-30T03:40:53.895Z,1.10
2023-04-30T03:43:06.634Z,1.10
2023-04-30T03:45:20.396Z,0.80
2023-04-30T03:47:34.083Z,1.50
2023-04-30T03:49:50.176Z,1.50
2023-04-30T03:52:03.635Z,1.20
2023-04-30T03:54:19.894Z,1.30
2023-04-30T03:56:32.571Z,1.00
2023-04-30T03:58:45.367Z,1.70
2023-04-30T04:00:58.301Z,1.80
2023-04-30T04:03:11.241Z,1.70
2023-04-30T04:05:26.529Z,1.60
2023-04-30T04:07:39.156Z,2.00
2023-04-30T04:09:52.084Z,2.00
2023-04-30T04:12:04.961Z,1.70
2023-04-30T04:14:17.597Z,1.90
2023-04-30T04:16:30.137Z,1.70
2023-04-30T04:18:42.786Z,2.30
2023-04-30T04:20:55.626Z,2.20
2023-04-30T04:23:08.244Z,2.00
2023-04-30T04:25:21.612Z,1.90
2023-04-30T04:27:34.480Z,2.00
2023-04-30T04:29:47.580Z,1.90
2023-04-30T04:32:01.457Z,1.90
2023-04-30T04:34:16.196Z,2.10
2023-04-30T04:36:29.920Z,2.30
2023-04-30T04:38:42.576Z,2.30
2023-04-30T04:41:03.849Z,2.60
2023-04-30T04:43:16.887Z,2.10
2023-04-30T04:45:29.672Z,1.50
2023-04-30T04:47:42.768Z,2.20
2023-04-30T04:49:56.128Z,2.10
2023-04-30T04:52:08.699Z,1.70
2023-04-30T04:54:21.190Z,1.70
2023-04-30T04:56:33.841Z,1.90
2023-04-30T04:58:48.594Z,1.80
2023-04-30T05:01:01.090Z,1.70
2023-04-30T05:03:15.529Z,1.80
2023-04-30T05:05:27.982Z,2.00
2023-04-30T05:07:41.054Z,1.70
2023-04-30T05:09:54.118Z,2.10
2023-04-30T05:12:06.744Z,1.80
2023-04-30T05:14:19.530Z,1.70
2023-04-30T05:16:31.876Z,1.70
2023-04-30T05:18:44.419Z,1.90
2023-04-30T05:20:56.670Z,2.00
2023-04-30T05:23:09.370Z,2.00
2023-04-30T05:25:21.944Z,1.40
2023-04-30T05:27:34.200Z,1.80
2023-04-30T05:29:47.187Z,1.90
2023-04-30T05:31:59.591Z,1.20
2023-04-30T05:34:12.313Z,2.20
2023-04-30T05:36:25.660Z,1.30
2023-04-30T05:38:37.947Z,1.70
2023-04-30T05:40:50.687Z,1.60
2023-04-30T05:43:03.304Z,1.30
2023-04-30T05:45:18.366Z,2.00
2023-04-30T05:47:30.822Z,1.60
2023-04-30T05:49:43.166Z,2.20
2023-04-30T05:51:56.273Z,1.70
2023-04-30T05:54:09.107Z,2.20
2023-04-30T05:56:22.095Z,2.00
2023-04-30T05:58:34.883Z,1.80
2023-04-30T06:00:47.853Z,1.80
2023-04-30T06:03:00.419Z,1.60
2023-04-30T06:05:16.078Z,2.10
2023-04-30T06:07:28.810Z,1.70
2023-04-30T06:09:41.115Z,1.60
2023-04-30T06:11:53.706Z,1.60
2023-04-30T06:14:06.583Z,1.70
2023-04-30T06:16:19.150Z,2.10
2023-04-30T06:18:31.753Z,1.40
2023-04-30T06:20:44.213Z,1.90
2023-04-30T06:22:56.677Z,1.80
2023-04-30T06:25:09.781Z,1.90
2023-04-30T06:27:22.184Z,1.60
2023-04-30T06:29:34.545Z,1.60
2023-04-30T06:31:47.257Z,1.80
2023-04-30T06:34:00.074Z,1.80
2023-04-30T06:36:13.871Z,2.10
2023-04-30T06:38:30.249Z,1.90
2023-04-30T06:40:42.900Z,2.10
2023-04-30T06:42:58.524Z,1.90
2023-04-30T06:45:12.390Z,1.40
2023-04-30T06:47:26.000Z,2.10
2023-04-30T06:49:38.549Z,1.90
2023-04-30T06:51:51.160Z,2.30
2023-04-30T06:54:03.780Z,1.80
2023-04-30T06:56:16.560Z,1.40
2023-04-30T06:58:29.293Z,1.60
2023-04-30T07:00:41.873Z,1.50
2023-04-30T07:02:54.877Z,2.10
2023-04-30T07:05:07.391Z,1.80
2023-04-30T07:07:20.389Z,1.70
2023-04-30T07:09:33.131Z,1.70
2023-04-30T07:11:46.516Z,1.30
2023-04-30T07:13:59.074Z,1.50
2023-04-30T07:16:13.717Z,1.60
2023-04-30T07:18:26.267Z,1.90
2023-04-30T07:20:38.776Z,2.40
2023-04-30T07:22:51.328Z,1.90
2023-04-30T07:25:03.979Z,1.80
2023-04-30T07:27:16.998Z,2.10
2023-04-30T07:29:29.955Z,2.50
2023-04-30T07:31:42.234Z,2.60
2023-04-30T07:33:56.493Z,2.10
2023-04-30T07:36:09.329Z,2.20
2023-04-30T07:38:22.828Z,2.10
2023-04-30T07:40:36.684Z,1.90
2023-04-30T07:42:49.509Z,2.20
2023-04-30T07:45:01.879Z,2.10
2023-04-30T07:47:14.215Z,1.70
2023-04-30T07:49:27.304Z,1.90
2023-04-30T07:51:39.963Z,1.80
2023-04-30T07:53:54.264Z,2.00
2023-04-30T07:56:07.061Z,2.10
2023-04-30T07:58:20.116Z,2.30
2023-04-30T08:00:32.661Z,1.90
2023-04-30T08:02:47.013Z,2.10
2023-04-30T08:04:59.467Z,1.80
2023-04-30T08:07:11.967Z,2.40
2023-04-30T08:09:24.796Z,2.00
2023-04-30T09:17:04.408Z,2.10
2023-04-30T09:19:24.221Z,2.20
2023-04-30T09:21:37.798Z,2.10
2023-04-30T09:24:03.543Z,2.30
2023-04-30T09:26:22.144Z,2.60
2023-04-30T09:28:32.137Z,2.40
2023-04-30T09:30:42.073Z,2.80
2023-04-30T09:33:00.405Z,2.30
2023-04-30T09:35:30.477Z,2.30
2023-04-30T09:37:42.782Z,2.40
2023-04-30T09:39:54.259Z,2.60
2023-04-30T09:42:13.535Z,2.70
2023-04-30T09:44:42.125Z,2.80
2023-04-30T09:46:54.429Z,2.80
2023-04-30T09:49:04.901Z,2.80
2023-04-30T09:51:14.606Z,2.60
2023-04-30T09:53:24.583Z,2.50
2023-04-30T09:55:34.372Z,2.40
2023-04-30T09:57:43.838Z,2.70
2023-04-30T09:59:55.127Z,3.00
2023-04-30T10:02:05.558Z,2.60
2023-04-30T10:04:15.747Z,2.70
2023-04-30T10:06:30.139Z,2.90
2023-04-30T10:08:44.089Z,2.80
2023-04-30T10:11:02.037Z,2.80
2023-04-30T10:13:16.774Z,2.60
2023-04-30T10:15:34.670Z,2.90
2023-04-30T10:17:46.519Z,2.50
2023-04-30T10:19:59.010Z,3.00
2023-04-30T10:22:19.482Z,3.00
2023-04-30T10:24:33.446Z,3.00
2023-04-30T10:26:46.588Z,2.40
2023-04-30T10:29:08.883Z,2.80
2023-04-30T10:31:20.162Z,2.60
2023-04-30T10:33:36.570Z,2.60
2023-04-30T10:36:00.731Z,2.60
2023-04-30T10:38:17.321Z,2.00
2023-04-30T10:40:28.389Z,2.60
2023-04-30T10:42:40.402Z,3.20
2023-04-30T10:44:50.689Z,1.60
2023-04-30T10:47:05.012Z,2.00
2023-04-30T10:49:20.015Z,1.90
2023-04-30T10:51:49.168Z,2.00
2023-04-30T10:54:02.597Z,1.80
2023-04-30T10:56:12.448Z,2.10
2023-04-30T10:58:34.968Z,1.90
2023-04-30T11:01:08.888Z,2.00
2023-04-30T11:03:24.001Z,1.50
2023-04-30T11:05:40.573Z,1.30
2023-04-30T11:07:58.126Z,1.70
2023-04-30T11:10:10.086Z,1.20
2023-04-30T11:12:22.283Z,1.30
2023-04-30T11:14:33.797Z,1.30
2023-04-30T11:16:57.533Z,1.40
2023-04-30T11:19:15.606Z,1.50
2023-04-30T11:21:24.947Z,1.60
2023-04-30T11:24:04.733Z,1.10
2023-04-30T11:26:17.586Z,1.30
2023-04-30T11:28:28.142Z,1.50
2023-04-30T11:30:38.817Z,1.60
2023-04-30T11:32:52.307Z,1.30
2023-04-30T11:35:02.462Z,1.40
2023-04-30T11:37:20.441Z,1.20
2023-04-30T11:39:31.594Z,1.10
2023-04-30T11:41:47.284Z,1.40
2023-04-30T11:43:59.850Z,1.60
2023-04-30T11:46:29.478Z,1.00
2023-04-30T11:48:53.138Z,1.40
2023-04-30T11:51:20.788Z,1.60
2023-04-30T11:53:41.254Z,1.20
2023-04-30T11:56:04.106Z,1.20
2023-04-30T11:58:38.404Z,1.40
2023-04-30T12:00:48.054Z,1.30
2023-04-30T12:02:58.405Z,1.20
2023-04-30T12:05:19.211Z,0.90
2023-04-30T12:07:31.732Z,1.20
2023-04-30T12:10:01.056Z,1.20
2023-04-30T12:12:10.614Z,1.60
2023-04-30T12:14:40.129Z,1.30
2023-04-30T12:16:50.987Z,1.30
2023-04-30T12:19:00.710Z,1.40
2023-04-30T12:21:21.264Z,1.40
2023-04-30T12:23:34.090Z,1.30
2023-04-30T12:25:47.568Z,0.90
2023-04-30T12:28:07.629Z,1.10
2023-04-30T12:30:37.980Z,1.50
2023-04-30T12:32:58.999Z,1.30
2023-04-30T12:35:31.348Z,1.30
2023-04-30T12:37:46.107Z,1.10
2023-04-30T12:39:57.714Z,2.00
2023-04-30T12:42:10.650Z,1.40
2023-04-30T12:44:25.060Z,1.10
2023-04-30T12:46:35.561Z,1.30
2023-04-30T12:48:48.985Z,1.40
2023-04-30T12:51:02.490Z,1.00
2023-04-30T12:53:12.016Z,1.30
2023-04-30T12:55:23.745Z,1.80
2023-04-30T12:57:35.715Z,1.00
2023-04-30T13:00:02.207Z,1.30
2023-04-30T13:02:16.697Z,1.10
2023-04-30T13:04:26.220Z,1.30
2023-04-30T13:06:35.728Z,1.40
2023-04-30T13:09:05.295Z,1.30
2023-04-30T13:11:14.671Z,1.10
2023-04-30T13:13:27.884Z,1.40
2023-04-30T13:15:48.627Z,1.30
2023-04-30T13:18:01.310Z,1.80
2023-04-30T13:20:13.232Z,1.80
2023-04-30T13:22:24.280Z,1.80
2023-04-30T13:24:33.740Z,2.50
2023-04-30T13:26:52.299Z,2.20
2023-04-30T13:29:05.293Z,2.10
2023-04-30T13:31:14.716Z,2.70
2023-04-30T13:33:24.578Z,2.80
2023-04-30T13:35:34.195Z,2.10
2023-04-30T13:37:43.798Z,2.10
2023-04-30T13:39:56.841Z,2.50
2023-04-30T13:42:06.445Z,2.40
2023-04-30T13:44:19.614Z,3.30
2023-04-30T13:46:32.089Z,2.30
2023-04-30T13:48:41.570Z,2.70
2023-04-30T13:50:50.911Z,2.60
2023-04-30T13:53:10.372Z,2.50
2023-04-30T13:55:20.285Z,2.70
2023-04-30T13:57:40.144Z,2.60
2023-04-30T13:59:49.937Z,2.80
2023-04-30T14:02:10.849Z,2.30
2023-04-30T14:04:20.773Z,2.60
2023-04-30T14:06:50.694Z,2.70
2023-04-30T14:09:00.272Z,2.60
2023-04-30T14:11:12.488Z,3.00
2023-04-30T14:13:21.936Z,2.40
2023-04-30T14:15:35.193Z,2.40
2023-04-30T14:17:45.016Z,2.30
2023-04-30T14:20:05.369Z,2.60
2023-04-30T14:22:15.042Z,3.10
2023-04-30T14:24:24.719Z,3.40
2023-04-30T14:26:34.754Z,3.30
2023-04-30T14:28:44.489Z,2.70
2023-04-30T14:30:56.618Z,2.70
2023-04-30T14:33:06.314Z,2.80
2023-04-30T14:35:16.233Z,3.10
2023-04-30T14:37:25.903Z,3.20
2023-04-30T14:39:35.558Z,3.30
2023-04-30T14:41:45.124Z,3.20
2023-04-30T14:43:54.824Z,2.80
2023-04-30T14:46:04.548Z,3.20
2023-04-30T14:48:14.246Z,3.50
2023-04-30T14:50:33.831Z,2.90
2023-04-30T14:53:03.420Z,3.20
2023-04-30T14:55:33.225Z,3.20
2023-04-30T14:57:45.829Z,3.00
2023-04-30T14:59:57.941Z,2.90
2023-04-30T15:02:07.654Z,2.90
2023-04-30T15:04:17.251Z,2.20
2023-04-30T15:06:27.291Z,2.30
2023-04-30T15:08:36.744Z,2.10
2023-04-30T15:10:56.948Z,2.30
2023-04-30T15:13:06.391Z,2.30
2023-04-30T15:15:19.441Z,1.70
2023-04-30T15:17:38.266Z,2.30
2023-04-30T15:19:48.082Z,2.30
2023-04-30T15:22:17.801Z,2.60
2023-04-30T15:24:27.628Z,2.30
2023-04-30T15:26:37.299Z,1.70
2023-04-30T15:28:58.959Z,1.90
2023-04-30T15:31:08.652Z,1.80
2023-04-30T15:33:21.841Z,1.90
2023-04-30T15:35:31.749Z,1.30
2023-04-30T15:38:01.598Z,1.70
2023-04-30T15:40:15.880Z,1.60
2023-04-30T15:42:25.782Z,1.30
2023-04-30T15:44:38.357Z,1.40
2023-04-30T15:46:47.952Z,1.30
2023-04-30T15:49:00.382Z,1.10
2023-04-30T15:51:09.917Z,1.30
2023-04-30T15:53:22.605Z,1.10
2023-04-30T15:55:31.964Z,1.10
2023-04-30T15:57:53.810Z,1.50
2023-04-30T16:02:21.048Z,1.20
2023-04-30T16:04:30.514Z,1.40
2023-04-30T16:06:40.080Z,1.50
2023-04-30T16:08:51.603Z,1.50
2023-04-30T16:11:01.645Z,1.40
2023-04-30T16:13:11.608Z,1.40
2023-04-30T16:15:25.445Z,1.50
2023-04-30T16:17:34.732Z,1.60
2023-04-30T16:20:04.640Z,1.30
2023-04-30T16:22:14.395Z,1.30
2023-04-30T16:24:27.687Z,1.40
2023-04-30T16:26:37.349Z,1.50
2023-04-30T16:28:46.890Z,1.40
2023-04-30T16:30:56.815Z,1.40
2023-04-30T16:33:16.731Z,1.10
2023-04-30T16:35:26.491Z,1.20
2023-04-30T16:37:46.065Z,1.00
2023-04-30T16:39:56.916Z,1.10
2023-04-30T16:42:27.570Z,1.40
2023-04-30T16:44:37.516Z,1.20
2023-04-30T16:46:50.957Z,1.20
2023-04-30T16:49:00.349Z,1.20
2023-04-30T16:51:09.949Z,1.10
2023-04-30T16:53:19.384Z,1.10
2023-04-30T16:55:29.091Z,1.10
2023-04-30T16:57:38.763Z,0.90
2023-04-30T16:59:58.519Z,1.00
2023-04-30T17:02:08.764Z,1.40
2023-04-30T17:04:18.464Z,1.20
2023-04-30T17:06:28.639Z,1.20
2023-04-30T17:08:41.407Z,1.00
2023-04-30T17:10:55.120Z,1.10
2023-04-30T17:13:05.923Z,1.10
2023-04-30T17:15:15.876Z,1.10
2023-04-30T17:17:25.685Z,1.10
2023-04-30T17:19:45.687Z,1.20
2023-04-30T17:21:55.813Z,1.40
2023-04-30T17:24:05.708Z,1.10
2023-04-30T17:26:18.196Z,1.20
2023-04-30T17:28:28.017Z,1.20
2023-04-30T17:30:37.568Z,1.20
2023-04-30T17:32:47.045Z,1.20
2023-04-30T17:34:58.416Z,1.30
2023-04-30T17:37:09.059Z,1.20
2023-04-30T17:39:19.297Z,1.40
2023-04-30T17:41:32.828Z,1.20
2023-04-30T17:43:42.856Z,0.90
2023-04-30T17:45:56.621Z,1.00
2023-04-30T17:48:06.300Z,1.30
2023-04-30T17:50:17.322Z,1.10
2023-04-30T17:52:27.202Z,1.10
2023-04-30T17:54:36.918Z,1.50
2023-04-30T17:56:46.131Z,1.40
2023-04-30T17:58:56.314Z,1.20
2023-04-30T18:01:26.495Z,1.20
2023-04-30T18:03:36.802Z,1.00
2023-04-30T18:05:51.277Z,0.80
2023-04-30T18:08:04.186Z,1.20
2023-04-30T18:10:16.840Z,1.00
2023-04-30T18:12:27.328Z,0.90
2023-04-30T18:14:37.029Z,1.00
2023-04-30T18:16:49.884Z,1.00
2023-04-30T18:19:03.005Z,0.70
2023-04-30T18:21:12.496Z,1.00
2023-04-30T18:23:22.627Z,1.50
2023-04-30T18:25:37.306Z,0.90
2023-04-30T18:29:55.748Z,1.20
2023-04-30T18:32:05.562Z,1.00
2023-04-30T18:34:15.389Z,1.40
2023-04-30T18:36:25.197Z,1.30
2023-04-30T18:38:39.136Z,1.40
2023-04-30T18:41:09.110Z,1.10
2023-04-30T18:43:22.063Z,0.90
2023-04-30T18:45:45.960Z,1.10
2023-04-30T18:47:58.807Z,1.40
2023-04-30T18:50:17.641Z,1.00
2023-04-30T18:52:31.032Z,0.90
2023-04-30T18:54:51.555Z,1.10
2023-04-30T18:57:06.714Z,1.00
2023-04-30T18:59:36.331Z,0.80
2023-04-30T19:01:46.898Z,0.70
2023-04-30T19:04:00.439Z,1.40
2023-04-30T19:06:10.112Z,0.80
2023-04-30T19:08:19.547Z,0.90
2023-04-30T19:10:40.624Z,0.80
2023-04-30T19:12:50.131Z,0.70
2023-04-30T19:15:01.249Z,0.80
2023-04-30T19:17:22.017Z,0.80
2023-04-30T19:19:34.646Z,1.00
2023-04-30T19:21:44.359Z,0.90
2023-04-30T19:23:53.948Z,0.80
2023-04-30T19:26:03.808Z,0.80
2023-04-30T19:28:15.028Z,0.80
2023-04-30T19:30:24.940Z,1.10
2023-04-30T19:32:34.467Z,1.00
2023-04-30T19:34:43.848Z,0.90
2023-04-30T19:36:53.170Z,0.70
2023-04-30T19:39:04.623Z,0.50
2023-04-30T19:41:14.024Z,0.50
2023-04-30T19:43:24.581Z,0.90
2023-04-30T19:45:37.865Z,0.60
2023-04-30T19:47:47.542Z,0.50
2023-04-30T19:49:57.335Z,0.80
2023-04-30T19:52:08.333Z,0.50
2023-04-30T19:54:18.254Z,0.50
2023-04-30T19:56:32.367Z,0.60
2023-04-30T19:58:52.829Z,0.50
2023-04-30T20:01:11.774Z,0.60
2023-04-30T20:03:26.587Z,0.40
2023-04-30T20:05:38.011Z,0.70
2023-04-30T20:07:47.763Z,0.40
2023-04-30T20:09:58.053Z,0.70
2023-04-30T20:12:08.064Z,0.60
2023-04-30T20:14:48.023Z,0.50
2023-04-30T20:16:52.739Z,0.60
2023-04-30T20:19:02.816Z,0.70
2023-04-30T20:21:12.206Z,0.80
2023-04-30T20:23:21.867Z,0.50
2023-04-30T20:25:40.572Z,0.60
2023-04-30T20:28:00.112Z,0.50
2023-04-30T20:30:11.446Z,0.70
2023-04-30T20:32:24.130Z,0.60
2023-04-30T20:34:34.059Z,0.70
2023-04-30T20:36:46.844Z,0.40
2023-04-30T20:38:56.767Z,0.70
2023-04-30T20:41:15.298Z,0.70
2023-04-30T20:43:36.241Z,0.60
2023-04-30T20:45:48.723Z,0.60
2023-04-30T20:48:09.501Z,0.70
2023-04-30T20:50:20.813Z,0.60
2023-04-30T20:52:30.465Z,0.50
2023-04-30T20:54:50.671Z,0.40
2023-04-30T20:57:00.453Z,0.70
2023-04-30T20:59:13.298Z,0.40
2023-04-30T21:01:35.697Z,0.60
2023-04-30T21:03:45.552Z,0.50
2023-04-30T21:05:55.451Z,0.50
2023-04-30T21:08:05.027Z,0.70
2023-04-30T21:10:37.076Z,0.60
2023-04-30T21:12:56.797Z,0.70
2023-04-30T21:15:06.849Z,0.80
2023-04-30T21:17:16.269Z,0.70
2023-04-30T21:19:26.159Z,0.70
2023-04-30T21:21:38.880Z,0.70
2023-04-30T21:23:48.625Z,0.70
2023-04-30T21:26:01.787Z,0.60
2023-04-30T21:28:11.087Z,0.50
2023-04-30T21:30:24.374Z,0.70
2023-04-30T21:32:35.452Z,0.70
2023-04-30T21:34:45.829Z,0.70
2023-04-30T21:36:55.570Z,0.40
2023-04-30T21:39:25.283Z,0.60
2023-04-30T21:41:38.100Z,0.60
2023-04-30T21:43:50.342Z,0.60
2023-04-30T21:46:05.062Z,0.60
2023-04-30T21:48:18.108Z,0.70
2023-04-30T21:50:33.778Z,0.60
2023-04-30T21:52:43.213Z,0.50
2023-04-30T21:55:04.122Z,1.00
2023-04-30T21:57:25.086Z,0.60
2023-04-30T21:59:37.249Z,0.60
2023-04-30T22:01:49.620Z,0.60
2023-04-30T22:04:00.410Z,0.60
2023-04-30T22:06:13.193Z,0.60
2023-04-30T22:08:22.854Z,0.40
2023-04-30T22:10:32.999Z,0.50
2023-04-30T22:12:47.765Z,0.60
2023-04-30T22:14:58.569Z,0.40
2023-04-30T22:17:08.097Z,0.60
2023-04-30T22:19:17.603Z,0.40
2023-04-30T22:21:30.596Z,0.60
2023-04-30T22:23:40.093Z,0.40
2023-04-30T22:25:49.890Z,0.70
2023-04-30T22:27:59.659Z,0.70
2023-04-30T22:30:13.605Z,0.50
2023-04-30T22:32:23.191Z,0.60
2023-04-30T22:34:34.067Z,0.60
2023-04-30T22:36:43.418Z,0.80
2023-04-30T22:38:55.825Z,0.40
2023-04-30T22:41:15.601Z,0.50
2023-04-30T22:43:24.924Z,0.50
2023-04-30T22:45:38.577Z,0.60
2023-04-30T22:47:51.519Z,0.70
2023-04-30T22:50:01.444Z,0.50
2023-04-30T22:52:20.532Z,0.40
2023-04-30T22:54:30.150Z,0.60
2023-04-30T22:56:50.994Z,0.70
2023-04-30T22:59:00.559Z,0.40
2023-04-30T23:01:10.316Z,0.50
2023-04-30T23:03:19.941Z,0.40
2023-04-30T23:05:31.620Z,0.50
2023-04-30T23:07:43.731Z,0.50
2023-04-30T23:09:53.323Z,0.50
2023-04-30T23:12:09.398Z,0.50
2023-04-30T23:14:18.997Z,0.40
2023-04-30T23:16:31.928Z,0.50
2023-04-30T23:18:44.751Z,0.60
2023-04-30T23:21:14.134Z,0.60
2023-04-30T23:23:23.867Z,0.70
2023-04-30T23:25:34.979Z,0.40
2023-04-30T23:28:05.408Z,0.40
2023-04-30T23:30:15.844Z,0.50
2023-04-30T23:32:45.763Z,0.60
2023-04-30T23:34:55.380Z,0.50
2023-04-30T23:37:04.816Z,0.60
2023-04-30T23:39:15.842Z,0.50
2023-04-30T23:41:26.366Z,0.50
2023-04-30T23:43:40.116Z,0.50
2023-04-30T23:45:49.545Z,0.60
2023-04-30T23:47:59.683Z,0.50
2023-04-30T23:50:19.375Z,0.40
2023-04-30T23:52:49.221Z,0.50
2023-04-30T23:55:19.486Z,0.50
2023-04-30T23:57:32.455Z,0.40
2023-04-30T23:59:42.931Z,0.40
